• Join FlightAware (Why Join?)
  • Login
  • US Flag 
04:51PM EDT


 

Airport Tracker/Info


-or-


 

Live Flight TrackerFlight Track Log ✈ N291CC ✈ 28-Jun-2013 ✈ KEOE - KCHS

Flight Track Log - Related Links

Times and Time Zones

All times are in EDT time to prevent confusion due to time zone crossing. See the N291CC flight status page for this flight to view local times or setup timezone preferences in your user account.

Time Position Orientation Groundspeed Altitude Reporting Facility
EDT Latitude Longitude Course Direction KTS MPH feet Rate Location/Type
06:42PM 34.2278 -81.5464 90° East 158 182 4,800  Level Jacksonville Center
06:43PM 34.1919 -81.5067 137° Southeast 166 191 6,400 1,620 Climbing Jacksonville Center
06:44PM 34.1600 -81.4672 134° Southeast 171 197 8,100 1,440 Climbing Jacksonville Center
06:45PM 34.1219 -81.4225 136° Southeast 178 205 9,300 780 Climbing Jacksonville Center
06:46PM 34.0756 -81.3708 137° Southeast 199 229 9,700 120 Climbing Jacksonville Center
06:47PM 34.0605 -81.3528 90° East  Level Estimated
06:47PM 34.0247 -81.3114 136° Southeast 227 261 9,600  Level Jacksonville Center
06:48PM 33.9739 -81.2497 135° Southeast 253 291 9,800 60 Climbing Jacksonville Center
06:49PM 33.9189 -81.1908 138° Southeast 258 297 9,800  Level Jacksonville Center
06:50PM 33.8658 -81.1317 137° Southeast 258 297 9,900  Climbing Jacksonville Center
06:51PM 33.8150 -81.0703 135° Southeast 263 303 9,900 -60 Level Jacksonville Center
06:52PM 33.7683 -81.0189 138° Southeast 263 303 9,800  Descending Jacksonville Center
06:53PM 33.7153 -80.9575 136° Southeast 263 303 9,900  Climbing Jacksonville Center
06:54PM 33.6619 -80.8989 138° Southeast 263 303 9,900  Level Jacksonville Center
06:55PM 33.6111 -80.8375 135° Southeast 263 303 9,900  Level Jacksonville Center
06:56PM 33.5600 -80.7789 136° Southeast 263 303 9,900  Level Jacksonville Center
06:57PM 33.5047 -80.7206 139° Southeast 263 303 9,900  Level Jacksonville Center
06:58PM 33.4536 -80.6619 136° Southeast 263 303 9,900  Level Jacksonville Center
06:59PM 33.4003 -80.6036 138° Southeast 263 303 9,900  Level Jacksonville Center
07:00PM 33.3492 -80.5453 136° Southeast 263 303 9,900  Level Jacksonville Center
07:01PM 33.2958 -80.4869 138° Southeast 263 303 9,900 -120 Level Jacksonville Center
07:02PM 33.2653 -80.4108 116° Southeast 257 296 9,700 -600 Descending Jacksonville Center
07:03PM 33.2242 -80.3425 126° Southeast 251 289 8,700 -1,260 Descending Jacksonville Center
07:04PM 33.1628 -80.2947 147° Southeast 246 283 7,200 -1,500 Descending Jacksonville Center
07:05PM 33.1033 -80.2442 145° Southeast 257 296 5,700 -1,740 Descending Jacksonville Center
07:06PM 33.0581 -80.1811 131° Southeast 257 296 3,800 -1,860 Descending Jacksonville Center
07:07PM 33.0131 -80.1206 132° Southeast 251 289 2,000 -1,800 Descending Jacksonville Center
07:09PM 32.9106 -80.0606 140° Southeast  Level FlightAware Approximate
07:16PM 32.8986 -80.0405 140° Southeast  Level Estimated
07:17PM 32.8986 -80.0405 140° Southeast  Level Estimated
07:18PM 32.8986 -80.0405 140° Southeast  Level Estimated